createdAt,value
2019-01-12T00:00:21.980Z,94.50
2019-01-12T00:02:49.605Z,94.50
2019-01-12T00:05:17.296Z,94.60
2019-01-12T00:15:13.814Z,94.80
2019-01-12T00:17:41.430Z,94.80
2019-01-12T00:20:09.156Z,94.90
2019-01-12T00:22:36.740Z,94.90
2019-01-12T00:25:04.917Z,95.00
2019-01-12T00:27:34.409Z,94.90
2019-01-12T00:30:02.105Z,94.60
2019-01-12T00:32:29.745Z,94.50
2019-01-12T00:35:00.707Z,94.30
2019-01-12T00:37:28.357Z,94.30
2019-01-12T00:39:56.066Z,94.30
2019-01-12T00:42:23.705Z,94.30
2019-01-12T00:44:51.296Z,94.50
2019-01-12T00:47:18.976Z,94.20
2019-01-12T00:49:46.569Z,94.00
2019-01-12T00:52:14.392Z,93.80
2019-01-12T00:54:42.056Z,93.60
2019-01-12T00:57:09.744Z,93.90
2019-01-12T00:59:37.412Z,94.20
2019-01-12T01:02:05.052Z,94.50
2019-01-12T01:04:32.777Z,94.70
2019-01-12T01:07:00.488Z,94.60
2019-01-12T01:09:28.076Z,94.80
2019-01-12T01:11:55.892Z,95.00
2019-01-12T01:14:23.508Z,95.30
2019-01-12T01:16:51.205Z,95.50
2019-01-12T01:19:18.805Z,95.60
2019-01-12T01:21:46.429Z,95.80
2019-01-12T01:24:14.078Z,95.80
2019-01-12T01:26:41.690Z,95.90
2019-01-12T01:29:09.390Z,95.80
2019-01-12T01:31:37.976Z,95.50
2019-01-12T01:34:05.624Z,95.10
2019-01-12T01:36:33.294Z,95.00
2019-01-12T01:39:00.947Z,94.50
2019-01-12T01:41:28.705Z,94.80
2019-01-12T01:43:56.364Z,94.80
2019-01-12T01:46:23.968Z,94.60
2019-01-12T01:48:51.651Z,94.50
2019-01-12T01:51:19.275Z,94.60
2019-01-12T01:53:46.948Z,94.50
2019-01-12T01:56:14.680Z,94.40
2019-01-12T01:58:42.356Z,94.00
2019-01-12T02:01:09.975Z,94.10
2019-01-12T02:03:37.660Z,94.20
2019-01-12T02:06:05.298Z,94.60
2019-01-12T02:08:32.944Z,95.10
2019-01-12T02:11:00.628Z,95.00
2019-01-12T02:13:28.465Z,94.80
2019-01-12T02:15:56.127Z,95.00
2019-01-12T02:18:23.745Z,94.90
2019-01-12T02:20:51.440Z,95.00
2019-01-12T02:23:19.048Z,94.90
2019-01-12T02:25:46.743Z,95.10
2019-01-12T02:28:14.352Z,94.80
2019-01-12T02:30:42.018Z,94.90
2019-01-12T02:33:09.667Z,94.90
2019-01-12T02:35:37.418Z,95.00
2019-01-12T02:38:05.203Z,95.20
2019-01-12T02:40:32.842Z,95.00
2019-01-12T02:43:00.586Z,94.90
2019-01-12T02:45:28.345Z,95.20
2019-01-12T02:47:56.521Z,95.30
2019-01-12T02:50:24.241Z,95.50
2019-01-12T02:52:51.972Z,95.40
2019-01-12T02:55:19.636Z,95.60
2019-01-12T02:57:47.320Z,95.90
2019-01-12T03:00:17.151Z,95.90
2019-01-12T03:02:44.816Z,95.70
2019-01-12T03:05:13.092Z,95.60
2019-01-12T03:07:40.838Z,95.50
2019-01-12T03:10:09.423Z,96.00
2019-01-12T03:12:37.095Z,95.60
2019-01-12T03:15:07.437Z,95.60
2019-01-12T03:17:35.101Z,95.30
2019-01-12T03:20:04.583Z,95.30
2019-01-12T03:22:32.185Z,95.40
2019-01-12T03:24:59.849Z,95.30
2019-01-12T03:27:27.561Z,95.20
2019-01-12T03:29:55.207Z,94.90
2019-01-12T03:32:22.836Z,94.60
2019-01-12T03:34:50.455Z,94.10
2019-01-12T03:37:18.203Z,94.20
2019-01-12T03:39:46.059Z,94.00
2019-01-12T03:42:13.797Z,94.00
2019-01-12T03:44:43.812Z,94.00
2019-01-12T03:47:11.476Z,93.90
2019-01-12T03:49:39.197Z,94.30
2019-01-12T03:52:06.918Z,94.60
2019-01-12T03:54:34.623Z,94.40
2019-01-12T03:57:02.276Z,94.20
2019-01-12T03:59:29.931Z,94.10
2019-01-12T04:01:57.583Z,93.90
2019-01-12T04:04:25.488Z,93.60
2019-01-12T04:06:53.189Z,93.20
2019-01-12T04:09:20.816Z,93.50
2019-01-12T04:11:49.793Z,93.30
2019-01-12T04:14:17.484Z,93.40
2019-01-12T04:16:45.134Z,93.50
2019-01-12T04:19:12.824Z,93.70
2019-01-12T04:21:40.456Z,93.60
2019-01-12T04:24:08.121Z,93.50
2019-01-12T04:26:35.797Z,93.60
2019-01-12T04:29:03.555Z,93.40
2019-01-12T04:31:32.354Z,93.30
2019-01-12T04:33:59.995Z,93.50
2019-01-12T04:36:27.633Z,93.90
2019-01-12T04:38:55.332Z,93.80
2019-01-12T04:41:22.994Z,93.90
2019-01-12T04:43:50.677Z,93.70
2019-01-12T04:46:18.433Z,93.60
2019-01-12T04:48:46.148Z,93.90
2019-01-12T04:51:13.926Z,94.20
2019-01-12T04:53:41.627Z,93.80
2019-01-12T04:56:09.318Z,93.80
2019-01-12T04:58:47.184Z,94.20
2019-01-12T05:01:14.829Z,94.60
2019-01-12T05:03:42.546Z,94.90
2019-01-12T05:06:10.253Z,94.60
2019-01-12T05:08:38.013Z,94.40
2019-01-12T05:11:08.048Z,94.60
2019-01-12T05:13:36.021Z,94.50
2019-01-12T05:16:03.823Z,94.50
2019-01-12T05:18:31.493Z,94.90
2019-01-12T05:20:59.114Z,95.30
2019-01-12T05:23:26.825Z,95.40
2019-01-12T05:25:54.510Z,95.30
2019-01-12T05:28:22.517Z,94.90
2019-01-12T05:30:50.230Z,94.60
2019-01-12T05:33:17.970Z,94.60
2019-01-12T05:35:47.645Z,94.20
2019-01-12T05:38:15.548Z,94.10
2019-01-12T05:40:43.269Z,94.40
2019-01-12T05:43:10.952Z,94.80
2019-01-12T05:45:38.568Z,95.10
2019-01-12T05:48:06.495Z,95.20
2019-01-12T05:50:34.221Z,94.90
2019-01-12T05:53:01.935Z,95.10
2019-01-12T05:55:29.602Z,95.10
2019-01-12T05:57:57.305Z,94.90
2019-01-12T06:00:24.937Z,95.10
2019-01-12T06:02:53.533Z,95.30
2019-01-12T06:05:21.347Z,95.40
2019-01-12T06:07:49.059Z,95.50
2019-01-12T06:10:16.704Z,95.50
2019-01-12T06:12:44.341Z,95.00
2019-01-12T06:15:12.492Z,95.10
2019-01-12T06:17:40.240Z,95.20
2019-01-12T06:20:08.776Z,94.90
2019-01-12T06:22:36.460Z,95.10
2019-01-12T06:25:05.083Z,95.40
2019-01-12T06:27:32.728Z,95.50
2019-01-12T06:30:00.677Z,95.30
2019-01-12T06:32:28.274Z,95.10
2019-01-12T06:34:55.999Z,95.20
2019-01-12T06:37:23.687Z,95.40
2019-01-12T06:39:51.434Z,95.60
2019-01-12T06:42:19.325Z,95.70
2019-01-12T06:44:46.955Z,95.70
2019-01-12T06:47:14.636Z,95.80
2019-01-12T06:49:42.565Z,95.80
2019-01-12T06:52:10.340Z,95.90
2019-01-12T06:54:37.960Z,96.10
2019-01-12T06:57:05.596Z,95.60
2019-01-12T06:59:34.306Z,95.20
2019-01-12T07:02:02.039Z,95.20
2019-01-12T07:04:29.657Z,95.30
2019-01-12T07:06:57.248Z,95.40
2019-01-12T07:09:25.025Z,95.10
2019-01-12T07:11:52.829Z,95.30
2019-01-12T07:14:20.524Z,95.60
2019-01-12T07:16:48.176Z,95.50
2019-01-12T07:19:17.860Z,95.20
2019-01-12T07:21:45.481Z,95.20
2019-01-12T07:24:13.203Z,95.00
2019-01-12T07:26:40.905Z,94.60
2019-01-12T07:29:08.522Z,94.70
2019-01-12T07:31:36.124Z,94.80
2019-01-12T07:34:03.920Z,94.60
2019-01-12T07:36:31.746Z,94.70
2019-01-12T07:38:59.385Z,94.50
2019-01-12T07:41:27.015Z,94.80
2019-01-12T07:43:54.793Z,94.80
2019-01-12T07:46:22.462Z,94.80
2019-01-12T07:48:50.143Z,94.70
2019-01-12T07:51:17.755Z,94.50
2019-01-12T07:53:45.419Z,93.80
2019-01-12T07:56:14.462Z,93.40
2019-01-12T07:58:42.083Z,92.70
2019-01-12T08:01:09.764Z,92.40
2019-01-12T08:03:37.476Z,92.50
2019-01-12T08:06:05.261Z,92.30
2019-01-12T08:08:32.855Z,92.50
2019-01-12T08:11:00.808Z,92.80
2019-01-12T08:13:28.457Z,92.50
2019-01-12T08:15:56.033Z,92.40
2019-01-12T08:18:23.681Z,92.60
2019-01-12T08:20:51.279Z,92.80
2019-01-12T08:23:18.953Z,92.20
2019-01-12T08:25:49.117Z,92.30
2019-01-12T08:28:16.804Z,92.10
2019-01-12T08:30:44.703Z,92.30
2019-01-12T08:33:12.305Z,92.30
2019-01-12T08:35:39.969Z,92.50
2019-01-12T08:38:07.644Z,92.20
2019-01-12T08:40:35.311Z,92.20
2019-01-12T08:43:03.288Z,91.90
2019-01-12T08:45:30.873Z,92.00
2019-01-12T08:47:58.608Z,92.30
2019-01-12T08:50:26.344Z,92.10
2019-01-12T08:52:54.034Z,92.30
2019-01-12T08:55:21.780Z,91.80
2019-01-12T08:57:50.508Z,91.60
2019-01-12T09:00:20.089Z,91.80
2019-01-12T09:02:47.851Z,91.60
2019-01-12T09:05:15.704Z,91.90
2019-01-12T09:07:43.358Z,91.90
2019-01-12T09:10:14.106Z,91.20
2019-01-12T09:12:41.760Z,91.20
2019-01-12T09:15:09.744Z,91.30
2019-01-12T09:17:37.358Z,91.50
2019-01-12T09:20:06.577Z,91.50
2019-01-12T09:22:34.256Z,91.50
2019-01-12T09:25:01.896Z,91.70
2019-01-12T09:27:31.069Z,91.50
2019-01-12T09:29:58.816Z,91.70
2019-01-12T09:32:26.602Z,91.50
2019-01-12T09:34:54.310Z,91.50
2019-01-12T09:37:23.340Z,91.60
2019-01-12T09:39:51.396Z,90.90
2019-01-12T09:42:19.276Z,90.50
2019-01-12T09:44:46.901Z,90.60
2019-01-12T09:47:15.751Z,90.80
2019-01-12T09:49:43.396Z,91.00
2019-01-12T09:52:11.061Z,90.80
2019-01-12T09:54:38.720Z,90.70
2019-01-12T09:57:06.340Z,90.50
2019-01-12T09:59:33.988Z,90.40
2019-01-12T10:02:01.612Z,90.70
2019-01-12T10:04:29.264Z,91.00
2019-01-12T10:06:57.381Z,91.20
2019-01-12T10:09:25.047Z,91.70
2019-01-12T10:11:52.805Z,91.40
2019-01-12T10:14:20.508Z,91.40
2019-01-12T10:16:48.187Z,91.40
2019-01-12T10:19:15.870Z,91.10
2019-01-12T10:21:43.528Z,90.80
2019-01-12T10:24:11.161Z,90.80
2019-01-12T10:26:38.831Z,90.90
2019-01-12T10:29:06.700Z,91.10
2019-01-12T10:31:34.356Z,91.20
2019-01-12T10:34:01.980Z,91.20
2019-01-12T10:36:29.788Z,91.30
2019-01-12T10:38:59.782Z,91.50
2019-01-12T10:41:27.548Z,91.50
2019-01-12T10:43:55.301Z,91.30
2019-01-12T10:46:23.157Z,91.30
2019-01-12T10:48:51.000Z,91.40
2019-01-12T10:51:18.628Z,91.50
2019-01-12T10:53:46.265Z,91.10
2019-01-12T10:56:18.561Z,91.20
2019-01-12T10:58:47.489Z,91.20
2019-01-12T11:01:15.140Z,91.30
2019-01-12T11:03:42.735Z,91.60
2019-01-12T11:06:10.508Z,91.80
2019-01-12T11:08:39.609Z,91.50
2019-01-12T11:11:07.269Z,91.70
2019-01-12T11:13:34.909Z,91.90
2019-01-12T11:16:02.656Z,91.80
2019-01-12T11:18:30.920Z,91.80
2019-01-12T11:20:58.604Z,91.90
2019-01-12T11:23:26.379Z,92.00
2019-01-12T11:25:54.100Z,92.10
2019-01-12T11:28:21.884Z,92.20
2019-01-12T11:30:49.572Z,92.30
2019-01-12T11:33:17.195Z,92.20
2019-01-12T11:35:44.876Z,92.00
2019-01-12T11:38:12.535Z,92.00
2019-01-12T11:40:40.469Z,91.90
2019-01-12T11:43:08.153Z,91.80
2019-01-12T11:45:36.824Z,91.50
2019-01-12T11:48:04.486Z,91.90
2019-01-12T11:50:32.063Z,92.00
2019-01-12T11:53:01.099Z,92.00
2019-01-12T11:55:28.807Z,92.10
2019-01-12T11:57:56.545Z,91.80
2019-01-12T12:00:28.655Z,91.60
2019-01-12T12:02:56.556Z,91.60
2019-01-12T12:05:24.777Z,91.80
2019-01-12T12:07:52.767Z,91.90
2019-01-12T12:10:20.568Z,91.90
2019-01-12T12:12:48.255Z,91.90
2019-01-12T12:15:16.232Z,91.80
2019-01-12T12:17:43.857Z,91.70
2019-01-12T12:20:16.540Z,91.20
2019-01-12T12:22:46.612Z,91.20
2019-01-12T12:25:14.383Z,91.30
2019-01-12T12:27:42.028Z,91.20
2019-01-12T12:30:13.608Z,90.80
2019-01-12T12:32:41.277Z,90.90
2019-01-12T12:35:08.959Z,90.70
2019-01-12T12:37:36.664Z,90.30
2019-01-12T12:40:05.866Z,90.00
2019-01-12T12:42:33.805Z,89.80
2019-01-12T12:45:01.412Z,89.70
2019-01-12T12:47:29.052Z,89.10
2019-01-12T12:49:56.727Z,89.60
2019-01-12T12:52:24.353Z,89.60
2019-01-12T12:54:52.104Z,90.20
2019-01-12T12:57:19.804Z,90.00
2019-01-12T12:59:47.437Z,89.00
2019-01-12T13:02:15.164Z,88.10
2019-01-12T13:04:42.826Z,87.90
2019-01-12T13:07:10.524Z,88.20
2019-01-12T13:09:38.231Z,87.90
2019-01-12T13:12:06.144Z,87.10
2019-01-12T13:14:33.981Z,86.90
2019-01-12T13:17:04.540Z,88.50
2019-01-12T13:19:32.209Z,89.20
2019-01-12T13:22:01.048Z,89.90
2019-01-12T13:24:28.687Z,90.30
2019-01-12T13:26:56.436Z,90.00
2019-01-12T13:29:24.170Z,90.10
2019-01-12T13:31:53.851Z,88.60
2019-01-12T13:34:21.522Z,88.80
2019-01-12T13:36:49.182Z,89.00
2019-01-12T13:39:16.815Z,90.00
2019-01-12T13:41:44.461Z,88.90
2019-01-12T13:44:12.089Z,89.40
2019-01-12T13:46:39.730Z,89.80
2019-01-12T13:49:07.372Z,90.10
2019-01-12T13:51:35.252Z,90.20
2019-01-12T13:54:03.156Z,90.40
2019-01-12T13:56:30.735Z,90.50
2019-01-12T13:58:58.405Z,90.30
2019-01-12T14:01:26.218Z,90.10
2019-01-12T14:03:54.120Z,89.90
2019-01-12T14:06:21.829Z,90.00
2019-01-12T14:08:49.553Z,89.90
2019-01-12T14:11:17.175Z,90.10
2019-01-12T14:13:44.826Z,90.10
2019-01-12T14:16:12.962Z,90.10
2019-01-12T14:18:40.641Z,90.10
2019-01-12T14:21:08.321Z,90.00
2019-01-12T14:23:36.478Z,89.30
2019-01-12T14:26:04.290Z,89.50
2019-01-12T14:28:32.027Z,88.60
2019-01-12T14:30:59.737Z,88.70
2019-01-12T14:33:28.852Z,89.40
2019-01-12T14:35:56.592Z,88.90
2019-01-12T14:38:24.556Z,88.90
2019-01-12T14:40:52.174Z,89.60
2019-01-12T14:43:22.673Z,90.00
2019-01-12T14:45:50.338Z,90.00
2019-01-12T14:48:18.072Z,90.10
2019-01-12T14:50:45.682Z,90.20
2019-01-12T14:53:13.379Z,90.00
2019-01-12T14:55:41.077Z,90.20
2019-01-12T14:58:08.673Z,90.30
2019-01-12T15:00:36.352Z,90.40
2019-01-12T15:03:04.066Z,90.40
2019-01-12T15:05:32.936Z,90.40
2019-01-12T15:08:00.547Z,90.70
2019-01-12T15:10:29.656Z,90.50
2019-01-12T15:12:57.370Z,90.80
2019-01-12T15:15:28.184Z,90.50
2019-01-12T15:17:58.241Z,90.40
2019-01-12T15:20:27.779Z,90.60
2019-01-12T15:22:57.766Z,90.50
2019-01-12T15:25:25.701Z,90.80
2019-01-12T15:27:53.468Z,90.80
2019-01-12T15:30:25.654Z,90.80
2019-01-12T15:32:53.697Z,90.90
2019-01-12T15:35:21.921Z,91.10
2019-01-12T15:37:49.565Z,91.30
2019-01-12T15:40:18.220Z,91.40
2019-01-12T15:42:45.911Z,91.60
2019-01-12T15:45:15.760Z,91.70
2019-01-12T15:47:43.598Z,91.60
2019-01-12T15:50:14.158Z,91.70
2019-01-12T15:52:41.790Z,91.80
2019-01-12T15:55:09.393Z,92.20
2019-01-12T15:57:39.160Z,91.80
2019-01-12T16:00:10.509Z,91.80
2019-01-12T16:02:40.003Z,92.00
2019-01-12T16:05:07.771Z,92.10
2019-01-12T16:07:35.432Z,92.00
2019-01-12T16:10:04.350Z,91.90
2019-01-12T16:12:32.164Z,92.10
2019-01-12T16:14:59.870Z,92.10
2019-01-12T16:17:28.631Z,92.20
2019-01-12T16:19:56.494Z,92.20
2019-01-12T16:22:24.304Z,92.20
2019-01-12T16:24:52.313Z,92.30
2019-01-12T16:27:19.975Z,92.40
2019-01-12T16:29:47.683Z,92.50
2019-01-12T16:32:15.333Z,92.50
2019-01-12T16:34:43.040Z,92.60
2019-01-12T16:37:10.752Z,92.40
2019-01-12T16:39:38.450Z,92.40
2019-01-12T16:42:08.393Z,92.40
2019-01-12T16:44:36.068Z,92.40
2019-01-12T16:47:04.093Z,92.30
2019-01-12T16:49:31.773Z,92.20
2019-01-12T16:52:02.331Z,92.10
2019-01-12T16:54:29.988Z,91.80
2019-01-12T16:56:57.662Z,91.80
2019-01-12T16:59:25.405Z,91.90
2019-01-12T17:01:52.992Z,92.00
2019-01-12T17:04:20.704Z,92.00
2019-01-12T17:06:48.383Z,91.90
2019-01-12T17:09:16.064Z,91.70
2019-01-12T17:11:43.700Z,91.60
2019-01-12T17:14:11.460Z,91.70
2019-01-12T17:16:39.081Z,91.30
2019-01-12T17:19:06.724Z,91.40
2019-01-12T17:21:34.368Z,91.90
2019-01-12T17:24:02.065Z,92.20
2019-01-12T17:26:29.721Z,92.50
2019-01-12T17:28:57.655Z,92.50
2019-01-12T17:31:25.445Z,92.90
2019-01-12T17:33:53.141Z,93.30
2019-01-12T17:36:20.790Z,93.30
2019-01-12T17:38:49.464Z,93.50
2019-01-12T17:41:17.203Z,93.70
2019-01-12T17:43:44.900Z,93.90
2019-01-12T17:46:12.581Z,93.60
2019-01-12T17:48:40.314Z,93.20
2019-01-12T17:51:08.049Z,92.90
2019-01-12T17:53:35.958Z,92.50
2019-01-12T17:56:03.922Z,92.00
2019-01-12T17:58:31.628Z,92.20
2019-01-12T18:00:59.316Z,91.60
2019-01-12T18:03:26.943Z,91.00
2019-01-12T18:05:56.850Z,90.80
2019-01-12T18:08:24.488Z,90.90
2019-01-12T18:10:52.184Z,90.50
2019-01-12T18:13:19.795Z,90.70
2019-01-12T18:15:47.475Z,91.20
2019-01-12T18:18:15.157Z,91.20
2019-01-12T18:20:42.904Z,91.10
2019-01-12T18:23:10.608Z,91.00
2019-01-12T18:25:38.240Z,91.00
2019-01-12T18:28:05.974Z,91.20
2019-01-12T18:30:33.764Z,91.20
2019-01-12T18:33:01.399Z,91.30
2019-01-12T18:35:29.048Z,91.20
2019-01-12T18:37:56.933Z,91.00
2019-01-12T18:40:24.644Z,90.80
2019-01-12T18:42:52.376Z,90.90
2019-01-12T18:45:20.052Z,90.60
2019-01-12T18:47:47.681Z,90.20
2019-01-12T18:50:20.461Z,89.90
2019-01-12T18:52:48.254Z,89.40
2019-01-12T18:55:16.101Z,89.10
2019-01-12T18:57:43.772Z,89.10
2019-01-12T19:00:18.592Z,88.40
2019-01-12T19:02:44.472Z,88.60
2019-01-12T19:05:12.128Z,88.30
2019-01-12T19:07:39.836Z,89.00
2019-01-12T19:10:08.736Z,89.20
2019-01-12T19:12:36.508Z,89.60
2019-01-12T19:15:06.367Z,89.60
2019-01-12T19:17:34.108Z,89.80
2019-01-12T19:20:01.803Z,90.20
2019-01-12T19:22:29.523Z,90.20
2019-01-12T19:24:57.373Z,90.00
2019-01-12T19:27:24.983Z,90.00
2019-01-12T19:29:52.646Z,90.30
2019-01-12T19:32:20.258Z,90.50
2019-01-12T19:34:47.891Z,90.60
2019-01-12T19:37:15.622Z,90.60
2019-01-12T19:39:43.252Z,90.90
2019-01-12T19:42:10.852Z,91.00
2019-01-12T19:44:38.550Z,90.70
2019-01-12T19:47:06.176Z,90.70
2019-01-12T19:49:34.013Z,91.00
2019-01-12T19:52:01.708Z,91.20
2019-01-12T19:54:29.452Z,91.30
2019-01-12T19:56:57.203Z,91.50
2019-01-12T19:59:24.833Z,91.60
2019-01-12T20:01:53.447Z,91.80
2019-01-12T20:04:21.108Z,91.90
2019-01-12T20:06:49.593Z,92.00
2019-01-12T20:09:17.223Z,92.10
2019-01-12T20:11:45.083Z,92.30
2019-01-12T20:14:12.794Z,92.30
2019-01-12T20:16:40.408Z,92.40
2019-01-12T20:19:08.050Z,92.50
2019-01-12T20:21:35.701Z,92.30
2019-01-12T20:24:03.510Z,92.20
2019-01-12T20:26:31.184Z,92.00
2019-01-12T20:28:58.902Z,92.30
2019-01-12T20:31:55.681Z,92.40
2019-01-12T20:34:41.998Z,92.50
2019-01-12T20:37:55.520Z,92.80
2019-01-12T20:41:05.012Z,93.00
2019-01-12T20:43:57.346Z,93.20
2019-01-12T20:46:58.693Z,93.40
2019-01-12T20:49:53.442Z,93.50
2019-01-12T20:53:03.064Z,93.60
2019-01-12T20:55:52.276Z,93.70
2019-01-12T20:58:46.380Z,94.10
2019-01-12T21:01:42.909Z,94.10
2019-01-12T21:04:32.759Z,93.60
2019-01-12T21:07:36.615Z,94.00
2019-01-12T21:10:44.433Z,94.20
2019-01-12T21:14:02.647Z,93.90
2019-01-12T21:16:34.041Z,94.00
2019-01-12T21:19:01.714Z,93.30
2019-01-12T21:21:29.729Z,92.20
2019-01-12T21:23:57.564Z,92.00
2019-01-12T21:26:25.242Z,91.60
2019-01-12T21:28:52.876Z,91.80
2019-01-12T21:31:20.466Z,91.60
2019-01-12T21:33:48.166Z,91.40
2019-01-12T21:36:15.844Z,91.40
2019-01-12T21:38:43.502Z,91.80
2019-01-12T21:41:11.260Z,92.50
2019-01-12T21:43:38.944Z,92.90
2019-01-12T21:46:06.697Z,93.40
2019-01-12T21:48:34.332Z,93.80
2019-01-12T21:51:02.027Z,94.20
2019-01-12T21:53:29.665Z,94.30
2019-01-12T21:55:57.308Z,94.60
2019-01-12T21:58:24.928Z,94.90
2019-01-12T22:00:52.568Z,95.10
2019-01-12T22:03:20.204Z,95.20
2019-01-12T22:05:47.907Z,95.30
2019-01-12T22:08:15.628Z,95.30
2019-01-12T22:10:44.638Z,95.40
2019-01-12T22:13:12.409Z,95.40
2019-01-12T22:15:40.964Z,95.40
2019-01-12T22:18:09.975Z,95.60
2019-01-12T22:20:37.600Z,95.50
2019-01-12T22:23:05.208Z,95.60
2019-01-12T22:25:32.947Z,95.60
2019-01-12T22:28:00.718Z,95.60
2019-01-12T22:30:28.504Z,95.60
2019-01-12T22:32:56.144Z,95.50
2019-01-12T22:35:23.772Z,95.50
2019-01-12T22:37:51.425Z,95.40
2019-01-12T22:40:19.297Z,95.40
2019-01-12T22:42:46.918Z,95.50
2019-01-12T22:45:16.088Z,95.60
2019-01-12T22:47:43.888Z,95.60
2019-01-12T22:50:12.676Z,95.70
2019-01-12T22:52:40.513Z,95.60
2019-01-12T22:55:09.332Z,95.60
2019-01-12T22:57:36.972Z,95.60
2019-01-12T23:00:27.448Z,95.60
2019-01-12T23:02:55.301Z,95.60
2019-01-12T23:05:22.900Z,96.00
2019-01-12T23:07:50.537Z,95.60
2019-01-12T23:10:18.290Z,95.40
2019-01-12T23:12:46.012Z,95.30
2019-01-12T23:15:13.857Z,95.60
2019-01-12T23:17:41.566Z,95.30
2019-01-12T23:20:09.395Z,95.40
2019-01-12T23:22:37.057Z,95.40
2019-01-12T23:25:05.107Z,95.50
2019-01-12T23:27:32.940Z,95.60
2019-01-12T23:30:04.575Z,95.50
2019-01-12T23:32:30.129Z,95.50
2019-01-12T23:34:57.752Z,95.50
2019-01-12T23:37:25.660Z,95.50
2019-01-12T23:39:53.281Z,95.60
2019-01-12T23:42:21.121Z,95.60
2019-01-12T23:44:48.761Z,95.50
2019-01-12T23:47:16.454Z,95.40
2019-01-12T23:49:44.156Z,95.40
2019-01-12T23:52:11.786Z,95.20
2019-01-12T23:54:39.478Z,95.20
2019-01-12T23:57:07.237Z,95.10
2019-01-12T23:59:35.024Z,95.10
